Time;durP1;ratioP1;P1;durP2;ratioP2;P2;SDS_P1;SDS_P2;PMS_P1;PMS_P2;Temp;Humidity;BMP_temperature;BMP_pressure;BME280_temperature;BME280_humidity;BME280_pressure;Samples;Min_cycle;Max_cycle;Signal;HPM_P1;HPM_P2
2023/10/10 00:00:27;;;;;;;8.57;7.00;;;;;;;;;;4163792;28;20034;-67
2023/10/10 00:02:30;;;;;;;6.40;5.95;;;;;;;;;;4163764;28;20065;-67
2023/10/10 00:04:33;;;;;;;6.15;5.80;;;;;;;;;;4163747;28;20509;-67
2023/10/10 00:06:38;;;;;;;6.10;5.72;;;;;;;;;;4159421;28;20100;-67
2023/10/10 00:08:40;;;;;;;5.78;5.57;;;;;;;;;;4147587;28;20058;-67
2023/10/10 00:10:44;;;;;;;6.45;5.90;;;;;;;;;;4147779;28;20080;-67
2023/10/10 00:12:47;;;;;;;6.53;6.15;;;;;;;;;;4147576;28;20069;-67
2023/10/10 00:14:50;;;;;;;6.47;6.18;;;;;;;;;;4147654;28;20042;-67
2023/10/10 00:16:54;;;;;;;6.50;6.20;;;;;;;;;;4147504;28;20061;-66
2023/10/10 00:18:58;;;;;;;6.30;5.97;;;;;;;;;;4147275;28;20502;-67
2023/10/10 00:21:06;;;;;;;6.88;6.45;;;;;;;;;;4147380;28;20053;-66
2023/10/10 00:23:11;;;;;;;7.05;6.68;;;;;;;;;;4147843;28;20398;-67
2023/10/10 00:25:13;;;;;;;7.60;6.85;;;;;;;;;;4145773;28;20053;-66
2023/10/10 00:27:15;;;;;;;8.10;7.32;;;;;;;;;;4147402;28;20046;-67
2023/10/10 00:29:19;;;;;;;6.83;6.47;;;;;;;;;;4147700;28;20513;-66
2023/10/10 00:31:22;;;;;;;8.52;8.07;;;;;;;;;;4141239;28;20457;-66
2023/10/10 00:33:24;;;;;;;8.55;7.95;;;;;;;;;;4133474;28;20044;-67
2023/10/10 00:35:27;;;;;;;8.57;8.00;;;;;;;;;;4134268;28;20435;-66
2023/10/10 00:37:34;;;;;;;8.63;8.13;;;;;;;;;;4134375;28;20495;-66
2023/10/10 00:39:36;;;;;;;10.50;9.80;;;;;;;;;;4134105;28;20442;-67
2023/10/10 00:41:52;;;;;;;10.85;10.02;;;;;;;;;;4160256;28;20045;-67
2023/10/10 00:43:53;;;;;;;10.85;10.18;;;;;;;;;;4166868;28;20385;-66
2023/10/10 00:45:57;;;;;;;10.93;9.95;;;;;;;;;;4134452;28;20053;-66
2023/10/10 00:48:00;;;;;;;9.82;8.93;;;;;;;;;;4134086;28;20078;-67
2023/10/10 00:50:02;;;;;;;9.02;8.40;;;;;;;;;;4134246;28;20486;-66
2023/10/10 00:52:06;;;;;;;8.35;7.65;;;;;;;;;;4134371;28;20046;-66
2023/10/10 00:54:11;;;;;;;9.52;8.93;;;;;;;;;;4152782;28;20038;-66
2023/10/10 00:56:14;;;;;;;8.15;7.78;;;;;;;;;;4166595;28;20045;-66
2023/10/10 00:58:22;;;;;;;8.23;6.90;;;;;;;;;;4165756;28;20065;-66
2023/10/10 01:00:29;;;;;;;7.85;7.32;;;;;;;;;;4166786;28;20037;-66
2023/10/10 01:02:32;;;;;;;6.60;6.07;;;;;;;;;;4164128;28;20065;-65
2023/10/10 01:04:48;;;;;;;6.85;6.63;;;;;;;;;;4148464;28;20045;-65
2023/10/10 01:06:51;;;;;;;6.45;6.00;;;;;;;;;;4148916;28;20041;-66
2023/10/10 01:09:29;;;;;;;6.38;5.90;;;;;;;;;;4149262;28;20490;-66
2023/10/10 01:11:25;;;;;;;5.57;5.07;;;;;;;;;;4133671;28;20053;-66
2023/10/10 01:13:26;;;;;;;6.72;6.25;;;;;;;;;;4141168;28;20154;-66
2023/10/10 01:15:35;;;;;;;6.13;5.60;;;;;;;;;;4142203;28;20038;-66
2023/10/10 01:17:38;;;;;;;4.78;4.32;;;;;;;;;;4139949;28;20050;-66
2023/10/10 01:19:44;;;;;;;7.88;6.72;;;;;;;;;;4132842;28;20043;-66
2023/10/10 01:21:50;;;;;;;7.45;4.60;;;;;;;;;;4132686;28;20057;-66
2023/10/10 01:23:52;;;;;;;5.47;5.18;;;;;;;;;;4132750;28;20046;-66
2023/10/10 01:26:05;;;;;;;5.43;5.00;;;;;;;;;;4139542;28;20112;-67
2023/10/10 01:28:15;;;;;;;4.53;4.03;;;;;;;;;;4148901;28;20073;-65
2023/10/10 01:30:30;;;;;;;6.15;5.75;;;;;;;;;;4148711;28;20045;-66
2023/10/10 01:32:34;;;;;;;6.43;5.80;;;;;;;;;;4148796;28;20101;-65
2023/10/10 01:34:43;;;;;;;7.30;5.28;;;;;;;;;;4148836;28;20125;-65
2023/10/10 01:36:50;;;;;;;7.05;6.50;;;;;;;;;;4151391;28;20112;-66
2023/10/10 01:39:02;;;;;;;7.38;6.00;;;;;;;;;;4164821;28;20053;-66
2023/10/10 01:41:15;;;;;;;5.88;5.28;;;;;;;;;;4154930;28;20526;-66
2023/10/10 01:43:19;;;;;;;6.28;5.72;;;;;;;;;;4148659;28;20034;-66
2023/10/10 01:45:20;;;;;;;5.45;5.13;;;;;;;;;;4147543;28;20434;-66
2023/10/10 01:47:34;;;;;;;6.15;5.80;;;;;;;;;;4137152;28;20042;-66
2023/10/10 01:49:36;;;;;;;6.03;5.63;;;;;;;;;;4131051;28;20129;-66
2023/10/10 01:51:42;;;;;;;6.00;5.65;;;;;;;;;;4132382;28;20129;-66
2023/10/10 01:53:44;;;;;;;6.07;4.65;;;;;;;;;;4132200;28;20125;-66
2023/10/10 01:55:47;;;;;;;7.63;5.83;;;;;;;;;;4132325;28;20034;-65
2023/10/10 01:57:49;;;;;;;5.60;5.13;;;;;;;;;;4132147;28;20069;-66
2023/10/10 01:59:57;;;;;;;7.03;6.53;;;;;;;;;;4142706;28;20561;-66
2023/10/10 02:01:59;;;;;;;5.25;4.95;;;;;;;;;;4148403;28;20042;-66
2023/10/10 02:04:07;;;;;;;7.85;6.35;;;;;;;;;;4104024;28;1305562;-66
2023/10/10 02:06:24;;;;;;;4.30;4.10;;;;;;;;;;4149373;28;20034;-65
2023/10/10 02:08:26;;;;;;;4.32;4.03;;;;;;;;;;4149270;28;20411;-65
2023/10/10 02:10:32;;;;;;;4.80;4.57;;;;;;;;;;4149065;28;20038;-66
2023/10/10 02:12:34;;;;;;;5.20;4.97;;;;;;;;;;4149141;28;20045;-66
2023/10/10 02:14:36;;;;;;;6.05;5.60;;;;;;;;;;4149196;28;20046;-66
2023/10/10 02:16:40;;;;;;;5.43;5.22;;;;;;;;;;4149145;28;20402;-66
2023/10/10 02:18:51;;;;;;;6.40;5.65;;;;;;;;;;4149018;28;20046;-65
2023/10/10 02:20:54;;;;;;;7.22;6.72;;;;;;;;;;4149035;28;20046;-65
2023/10/10 02:27:32;;;;;;;5.80;5.32;;;;;;;;;;4148830;28;20702;-65
2023/10/10 02:29:35;;;;;;;6.70;6.32;;;;;;;;;;4149121;28;20164;-65
2023/10/10 02:31:40;;;;;;;7.72;7.13;;;;;;;;;;4148847;28;20049;-65
2023/10/10 02:33:48;;;;;;;6.63;5.30;;;;;;;;;;4158440;28;20043;-66
2023/10/10 02:37:55;;;;;;;6.90;5.68;;;;;;;;;;4140776;28;20035;-66
2023/10/10 02:40:15;;;;;;;6.07;5.43;;;;;;;;;;4132547;28;20042;-66
2023/10/10 02:42:19;;;;;;;7.55;6.00;;;;;;;;;;4132590;28;20062;-65
2023/10/10 02:44:46;;;;;;;5.97;5.47;;;;;;;;;;4132345;28;20058;-66
2023/10/10 02:46:42;;;;;;;6.93;5.47;;;;;;;;;;4132196;28;20046;-66
2023/10/10 02:48:44;;;;;;;11.25;5.32;;;;;;;;;;4132430;28;20043;-66
2023/10/10 02:50:46;;;;;;;6.25;5.70;;;;;;;;;;4132351;28;20503;-65
2023/10/10 02:52:48;;;;;;;8.93;5.63;;;;;;;;;;4131563;28;20054;-65
2023/10/10 02:54:55;;;;;;;5.82;5.18;;;;;;;;;;4147103;28;20712;-66
2023/10/10 02:56:58;;;;;;;5.90;5.22;;;;;;;;;;4148986;28;20044;-66
2023/10/10 02:59:04;;;;;;;6.82;6.43;;;;;;;;;;4148354;28;20413;-66
2023/10/10 03:01:18;;;;;;;7.28;5.53;;;;;;;;;;4148550;28;20137;-65
2023/10/10 03:03:20;;;;;;;6.18;5.75;;;;;;;;;;4148195;28;20060;-66
2023/10/10 03:05:39;;;;;;;6.95;5.88;;;;;;;;;;4148411;28;20038;-65
2023/10/10 03:07:42;;;;;;;5.30;4.95;;;;;;;;;;4148508;28;20033;-66
2023/10/10 03:10:15;;;;;;;;;;;;;;;;;;4148642;28;20084;-66
2023/10/10 03:12:05;;;;;;;5.57;5.20;;;;;;;;;;4148163;28;19921;-65
2023/10/10 03:14:07;;;;;;;5.95;5.20;;;;;;;;;;4148253;28;20521;-64
2023/10/10 03:18:35;;;;;;;7.47;5.60;;;;;;;;;;4129269;28;20041;-65
2023/10/10 03:25:09;;;;;;;7.07;5.90;;;;;;;;;;4148320;28;20056;-65
2023/10/10 03:27:48;;;;;;;6.55;6.18;;;;;;;;;;4148117;28;20048;-66
2023/10/10 03:29:47;;;;;;;4.95;4.72;;;;;;;;;;4141916;28;20073;-65
2023/10/10 03:32:18;;;;;;;5.20;4.57;;;;;;;;;;4144954;28;20042;-65
2023/10/10 03:38:30;;;;;;;9.20;6.63;;;;;;;;;;4147942;28;20038;-65
2023/10/10 05:24:43;;;;;;;5.80;5.55;;;;;;;;;;4149622;28;20053;-65
2023/10/10 05:26:47;;;;;;;5.88;5.32;;;;;;;;;;4150074;28;20046;-65
2023/10/10 05:28:49;;;;;;;8.15;7.05;;;;;;;;;;4149866;28;20116;-65
2023/10/10 05:30:55;;;;;;;10.07;7.70;;;;;;;;;;4149848;28;20045;-65
2023/10/10 05:33:07;;;;;;;6.15;5.70;;;;;;;;;;4147881;28;20045;-65
2023/10/10 05:35:11;;;;;;;6.13;5.57;;;;;;;;;;4149512;28;20042;-65
2023/10/10 05:37:15;;;;;;;7.78;7.28;;;;;;;;;;4149805;28;20077;-65
2023/10/10 05:39:21;;;;;;;6.82;6.05;;;;;;;;;;4148500;28;20044;-64
2023/10/10 05:41:23;;;;;;;6.70;6.13;;;;;;;;;;4142077;28;20049;-64
2023/10/10 05:43:33;;;;;;;5.65;5.40;;;;;;;;;;4148638;28;20128;-65
2023/10/10 05:45:36;;;;;;;5.82;5.40;;;;;;;;;;4149836;28;20524;-64
2023/10/10 05:47:39;;;;;;;7.05;6.38;;;;;;;;;;4135921;28;20050;-65
2023/10/10 05:49:40;;;;;;;8.93;7.95;;;;;;;;;;4133357;28;20042;-65
2023/10/10 05:51:42;;;;;;;8.20;6.83;;;;;;;;;;4141262;28;20700;-65
2023/10/10 05:53:46;;;;;;;7.00;6.40;;;;;;;;;;4147432;28;20057;-65
2023/10/10 05:55:53;;;;;;;5.97;5.57;;;;;;;;;;4147905;28;20112;-65
2023/10/10 05:57:57;;;;;;;6.82;6.43;;;;;;;;;;4149175;28;20046;-65
2023/10/10 05:59:59;;;;;;;9.07;5.85;;;;;;;;;;4149362;28;20038;-64
2023/10/10 06:02:01;;;;;;;7.20;6.55;;;;;;;;;;4148210;28;20042;-65
2023/10/10 06:04:03;;;;;;;9.10;6.15;;;;;;;;;;4149176;28;20077;-65
2023/10/10 06:06:05;;;;;;;6.78;6.20;;;;;;;;;;4157131;28;20121;-65
2023/10/10 06:08:06;;;;;;;6.20;5.43;;;;;;;;;;4164974;28;20037;-65
2023/10/10 06:10:16;;;;;;;7.70;7.05;;;;;;;;;;4165654;28;20038;-65
2023/10/10 06:12:19;;;;;;;7.72;7.05;;;;;;;;;;4165555;28;20033;-65
2023/10/10 06:14:21;;;;;;;9.02;6.53;;;;;;;;;;4165788;28;20116;-66
2023/10/10 06:16:23;;;;;;;;;;;;;;;;;;4165956;28;20080;-64
2023/10/10 06:18:25;;;;;;;9.13;7.47;;;;;;;;;;4165317;28;19925;-64
2023/10/10 06:20:27;;;;;;;8.40;7.03;;;;;;;;;;4165494;28;20125;-64
2023/10/10 06:22:29;;;;;;;7.75;4.95;;;;;;;;;;4148025;28;20482;-64
2023/10/10 06:24:33;;;;;;;6.57;6.03;;;;;;;;;;4132943;28;20061;-65
2023/10/10 06:26:37;;;;;;;5.97;5.68;;;;;;;;;;4124408;28;20052;-65
2023/10/10 06:28:45;;;;;;;8.50;6.43;;;;;;;;;;4111318;28;20046;-65
2023/10/10 06:30:48;;;;;;;6.57;6.13;;;;;;;;;;4136141;28;20086;-64
2023/10/10 06:32:49;;;;;;;;;;;;;;;;;;4149105;28;20041;-65
2023/10/10 06:35:04;;;;;;;6.38;5.78;;;;;;;;;;4148752;28;20012;-65
2023/10/10 06:37:13;;;;;;;12.60;7.63;;;;;;;;;;4148770;28;20052;-64
2023/10/10 06:41:18;;;;;;;15.30;7.17;;;;;;;;;;4152638;28;20037;-65
2023/10/10 06:43:20;;;;;;;8.90;8.32;;;;;;;;;;4148645;28;20289;-65
2023/10/10 06:45:22;;;;;;;8.63;7.25;;;;;;;;;;4132260;28;20047;-65
2023/10/10 06:47:28;;;;;;;17.20;8.02;;;;;;;;;;4143363;28;20065;-65
2023/10/10 06:49:43;;;;;;;18.25;9.70;;;;;;;;;;4148378;28;20398;-65
2023/10/10 06:51:45;;;;;;;12.98;9.68;;;;;;;;;;4148386;28;20045;-64
2023/10/10 06:53:46;;;;;;;21.33;10.83;;;;;;;;;;4148696;28;20100;-65
2023/10/10 06:55:48;;;;;;;13.13;9.87;;;;;;;;;;4148373;28;20649;-64
2023/10/10 06:57:58;;;;;;;9.48;8.63;;;;;;;;;;4148440;28;20088;-64
2023/10/10 07:00:00;;;;;;;9.80;8.88;;;;;;;;;;4148630;28;20044;-65
2023/10/10 07:02:13;;;;;;;9.23;7.97;;;;;;;;;;4148230;28;20120;-64
2023/10/10 07:04:16;;;;;;;7.55;6.97;;;;;;;;;;4148331;28;20065;-64
2023/10/10 07:06:20;;;;;;;9.18;8.27;;;;;;;;;;4148547;28;20034;-65
2023/10/10 07:08:25;;;;;;;14.48;8.43;;;;;;;;;;4148532;28;20038;-65
2023/10/10 07:10:33;;;;;;;9.27;7.88;;;;;;;;;;4148439;28;20033;-65
2023/10/10 07:12:38;;;;;;;9.90;8.98;;;;;;;;;;4148393;28;20068;-65
2023/10/10 07:14:43;;;;;;;12.93;9.00;;;;;;;;;;4155020;28;20080;-64
2023/10/10 07:16:45;;;;;;;8.82;8.07;;;;;;;;;;4164396;28;20437;-65
2023/10/10 07:18:56;;;;;;;11.77;9.03;;;;;;;;;;4146430;28;20042;-64
2023/10/10 07:21:04;;;;;;;10.60;8.55;;;;;;;;;;4131853;28;20038;-65
2023/10/10 07:23:07;;;;;;;16.95;15.40;;;;;;;;;;4131905;28;20105;-64
2023/10/10 07:25:17;;;;;;;16.02;14.20;;;;;;;;;;4131749;28;20057;-64
2023/10/10 07:27:24;;;;;;;16.55;14.90;;;;;;;;;;4131865;28;20053;-65
2023/10/10 07:29:26;;;;;;;16.92;15.23;;;;;;;;;;4132028;28;20047;-64
2023/10/10 07:31:34;;;;;;;22.17;13.88;;;;;;;;;;4141872;28;20410;-64
2023/10/10 07:33:40;;;;;;;14.43;12.95;;;;;;;;;;4147875;28;20454;-65
2023/10/10 07:35:43;;;;;;;14.23;13.15;;;;;;;;;;4147905;28;20063;-65
2023/10/10 07:37:45;;;;;;;15.30;13.13;;;;;;;;;;4147986;28;20045;-64
2023/10/10 07:39:57;;;;;;;19.73;13.10;;;;;;;;;;4147475;28;20081;-65
2023/10/10 07:41:58;;;;;;;16.75;13.23;;;;;;;;;;4147735;28;20042;-65
2023/10/10 07:44:00;;;;;;;27.03;12.93;;;;;;;;;;4147843;28;20049;-65
2023/10/10 07:46:22;;;;;;;19.07;11.57;;;;;;;;;;4147800;28;20072;-65
2023/10/10 07:50:34;;;;;;;23.40;13.68;;;;;;;;;;4147703;28;20057;-65
2023/10/10 07:52:36;;;;;;;19.50;13.80;;;;;;;;;;4147785;28;20100;-65
2023/10/10 07:54:43;;;;;;;21.45;12.57;;;;;;;;;;4161224;28;20838;-65
2023/10/10 07:56:45;;;;;;;18.05;14.63;;;;;;;;;;4164066;28;20043;-65
2023/10/10 07:58:50;;;;;;;22.45;13.95;;;;;;;;;;4164064;28;20037;-65
2023/10/10 08:01:03;;;;;;;17.20;14.20;;;;;;;;;;4163909;28;20037;-65
2023/10/10 08:03:05;;;;;;;13.18;11.57;;;;;;;;;;4163735;28;20090;-65
2023/10/10 08:05:11;;;;;;;20.80;12.75;;;;;;;;;;4163837;28;20079;-65
2023/10/10 08:07:18;;;;;;;18.15;13.15;;;;;;;;;;4164028;28;20409;-65
2023/10/10 08:09:21;;;;;;;14.77;12.18;;;;;;;;;;4163935;28;20041;-65
2023/10/10 08:11:35;;;;;;;14.02;11.38;;;;;;;;;;4163892;28;20506;-65
2023/10/10 08:13:48;;;;;;;15.73;12.18;;;;;;;;;;4164002;28;20115;-66
2023/10/10 08:17:55;;;;;;;13.75;11.05;;;;;;;;;;4131379;28;20034;-65
2023/10/10 08:20:30;;;;;;;16.00;11.88;;;;;;;;;;4131377;28;20049;-65
2023/10/10 08:22:25;;;;;;;13.05;10.90;;;;;;;;;;4131216;28;20038;-65
2023/10/10 08:24:27;;;;;;;14.15;10.77;;;;;;;;;;4131208;28;20034;-67
2023/10/10 08:26:29;;;;;;;12.30;10.88;;;;;;;;;;4131305;28;20038;-66
2023/10/10 08:28:31;;;;;;;;;;;;;;;;;;4131808;28;20515;-65
2023/10/10 08:30:32;;;;;;;10.52;9.00;;;;;;;;;;4133959;28;19930;-64
2023/10/10 08:32:34;;;;;;;12.48;10.23;;;;;;;;;;4147341;28;20561;-65
2023/10/10 08:34:39;;;;;;;13.02;9.73;;;;;;;;;;4147469;28;20046;-65
2023/10/10 08:36:43;;;;;;;13.85;9.18;;;;;;;;;;4147564;28;20048;-65
2023/10/10 08:38:45;;;;;;;10.52;9.48;;;;;;;;;;4147365;28;20044;-65
2023/10/10 08:40:56;;;;;;;15.60;9.93;;;;;;;;;;4147235;28;20405;-65
2023/10/10 08:42:59;;;;;;;10.68;9.88;;;;;;;;;;4147387;28;20037;-65
2023/10/10 08:45:01;;;;;;;10.45;9.27;;;;;;;;;;4147599;28;20046;-66
2023/10/10 08:47:04;;;;;;;10.65;8.40;;;;;;;;;;4147237;28;20046;-66
2023/10/10 08:49:06;;;;;;;11.05;8.75;;;;;;;;;;4147351;28;20045;-66
2023/10/10 08:51:08;;;;;;;;;;;;;;;;;;4149339;28;20568;-65
2023/10/10 08:53:12;;;;;;;9.43;8.48;;;;;;;;;;4151728;28;19921;-65
2023/10/10 08:55:18;;;;;;;14.10;9.18;;;;;;;;;;4166636;28;20042;-65
2023/10/10 08:57:27;;;;;;;8.80;8.10;;;;;;;;;;4166977;28;20037;-65
2023/10/10 08:59:29;;;;;;;9.60;7.80;;;;;;;;;;4166693;28;20107;-65
2023/10/10 09:01:39;;;;;;;7.63;7.18;;;;;;;;;;4166660;28;20038;-65
2023/10/10 09:03:45;;;;;;;9.13;7.28;;;;;;;;;;4166487;28;20062;-66
2023/10/10 09:05:47;;;;;;;9.02;6.72;;;;;;;;;;4166697;28;20425;-65
2023/10/10 09:07:55;;;;;;;5.95;5.65;;;;;;;;;;4166353;28;20107;-65
2023/10/10 09:10:13;;;;;;;7.15;6.63;;;;;;;;;;4166769;28;20037;-65
2023/10/10 09:12:20;;;;;;;6.03;5.78;;;;;;;;;;4133995;28;20046;-65
2023/10/10 09:14:35;;;;;;;6.70;6.10;;;;;;;;;;4133976;28;20105;-65
2023/10/10 09:16:44;;;;;;;6.03;5.50;;;;;;;;;;4133877;28;20039;-65
2023/10/10 09:19:04;;;;;;;6.18;5.78;;;;;;;;;;4133810;28;20042;-65
2023/10/10 09:21:18;;;;;;;5.78;5.30;;;;;;;;;;4133736;28;20042;-65
2023/10/10 09:23:23;;;;;;;6.68;5.85;;;;;;;;;;4133721;28;20046;-65
2023/10/10 09:25:26;;;;;;;6.90;6.60;;;;;;;;;;4133829;28;20459;-65
2023/10/10 09:27:28;;;;;;;5.70;5.25;;;;;;;;;;4133725;28;20782;-64
2023/10/10 09:29:42;;;;;;;6.10;5.88;;;;;;;;;;4141174;28;20065;-65
2023/10/10 09:31:45;;;;;;;4.90;4.60;;;;;;;;;;4149809;28;20081;-65
2023/10/10 09:33:47;;;;;;;8.23;5.45;;;;;;;;;;4149821;28;20133;-66
2023/10/10 09:35:58;;;;;;;4.25;4.05;;;;;;;;;;4149392;28;20034;-65
2023/10/10 09:38:00;;;;;;;5.20;4.47;;;;;;;;;;4149772;28;20038;-65
2023/10/10 09:40:04;;;;;;;;;;;;;;;;;;4150045;28;20042;-65
2023/10/10 09:46:36;;;;;;;3.85;3.65;;;;;;;;;;4149304;28;20057;-65
2023/10/10 09:50:51;;;;;;;2.85;2.67;;;;;;;;;;4149491;28;20072;-65
2023/10/10 09:52:59;;;;;;;6.53;3.47;;;;;;;;;;4149631;28;20438;-65
2023/10/10 09:57:17;;;;;;;3.13;2.70;;;;;;;;;;4133184;28;20116;-65
2023/10/10 09:59:20;;;;;;;2.97;2.78;;;;;;;;;;4133237;28;20088;-65
2023/10/10 10:01:24;;;;;;;2.97;2.78;;;;;;;;;;4133106;28;20042;-65
2023/10/10 10:03:31;;;;;;;4.90;3.10;;;;;;;;;;4147020;28;20041;-66
2023/10/10 10:05:35;;;;;;;2.42;2.33;;;;;;;;;;4165789;28;20053;-65
2023/10/10 10:07:56;;;;;;;4.05;2.78;;;;;;;;;;4154694;28;20045;-65
2023/10/10 10:10:18;;;;;;;3.10;2.35;;;;;;;;;;4149316;28;20054;-66
2023/10/10 10:12:33;;;;;;;5.43;3.05;;;;;;;;;;4149395;28;20449;-65
2023/10/10 10:14:48;;;;;;;2.45;2.10;;;;;;;;;;4149172;28;20077;-65
2023/10/10 10:16:53;;;;;;;2.60;2.40;;;;;;;;;;4149136;28;20038;-65
2023/10/10 10:19:11;;;;;;;2.08;1.98;;;;;;;;;;4149207;28;20119;-66
2023/10/10 10:21:18;;;;;;;2.38;2.28;;;;;;;;;;4149269;28;20045;-65
2023/10/10 10:23:26;;;;;;;3.10;1.90;;;;;;;;;;4149131;28;20057;-65
2023/10/10 10:25:31;;;;;;;4.20;1.95;;;;;;;;;;4149190;28;20034;-65
2023/10/10 10:27:41;;;;;;;3.08;1.90;;;;;;;;;;4149074;28;20038;-66
2023/10/10 10:29:48;;;;;;;2.92;2.08;;;;;;;;;;4148926;28;20441;-65
2023/10/10 10:31:51;;;;;;;6.15;2.75;;;;;;;;;;4148900;28;20042;-65
2023/10/10 10:34:23;;;;;;;2.03;1.90;;;;;;;;;;4148953;28;20041;-65
2023/10/10 10:36:27;;;;;;;2.05;1.80;;;;;;;;;;4149038;28;20054;-65
2023/10/10 10:38:31;;;;;;;3.38;2.15;;;;;;;;;;4148754;28;20125;-65
2023/10/10 10:42:42;;;;;;;2.20;1.95;;;;;;;;;;4148784;28;20041;-65
2023/10/10 10:46:57;;;;;;;2.00;1.90;;;;;;;;;;4140589;28;20116;-65
2023/10/10 10:49:05;;;;;;;2.58;1.65;;;;;;;;;;4132464;28;20043;-65
2023/10/10 10:51:22;;;;;;;2.97;1.70;;;;;;;;;;4132766;28;20133;-65
2023/10/10 10:53:35;;;;;;;1.65;1.52;;;;;;;;;;4139589;28;20140;-65
2023/10/10 10:55:40;;;;;;;2.08;1.98;;;;;;;;;;4165178;28;20042;-65
2023/10/10 10:57:43;;;;;;;2.55;1.60;;;;;;;;;;4165029;28;20051;-66
2023/10/10 10:59:55;;;;;;;2.03;1.92;;;;;;;;;;4147938;28;20137;-65
2023/10/10 11:01:57;;;;;;;1.40;1.25;;;;;;;;;;4135447;28;20082;-66
2023/10/10 11:03:59;;;;;;;1.50;1.40;;;;;;;;;;4139723;28;20057;-66
2023/10/10 11:06:06;;;;;;;4.15;1.33;;;;;;;;;;4140601;28;20050;-65
2023/10/10 11:08:14;;;;;;;1.20;1.10;;;;;;;;;;4146133;28;20579;-65
2023/10/10 11:10:35;;;;;;;2.88;1.20;;;;;;;;;;4140353;28;20074;-65
2023/10/10 11:12:37;;;;;;;4.55;1.73;;;;;;;;;;4144774;28;20049;-65
2023/10/10 11:14:45;;;;;;;1.73;1.63;;;;;;;;;;4147862;28;20050;-65
2023/10/10 11:16:56;;;;;;;1.30;1.10;;;;;;;;;;4148382;28;20383;-65
2023/10/10 11:18:58;;;;;;;2.10;1.40;;;;;;;;;;4148300;28;20137;-65
2023/10/10 11:21:08;;;;;;;;;;;;;;;;;;4145077;28;20034;-65
2023/10/10 11:23:14;;;;;;;1.45;1.20;;;;;;;;;;4144296;28;19928;-65
2023/10/10 11:25:29;;;;;;;2.28;1.55;;;;;;;;;;4148224;28;20479;-66
2023/10/10 11:27:43;;;;;;;2.08;1.23;;;;;;;;;;4139632;28;20038;-66
2023/10/10 11:29:47;;;;;;;1.55;1.17;;;;;;;;;;4140371;28;20037;-66
2023/10/10 11:32:06;;;;;;;3.00;1.20;;;;;;;;;;4139977;28;20465;-66
2023/10/10 11:34:11;;;;;;;2.75;1.30;;;;;;;;;;4148193;28;20100;-66
2023/10/10 11:36:24;;;;;;;1.50;1.40;;;;;;;;;;4147895;28;20037;-66
2023/10/10 11:38:36;;;;;;;1.55;1.27;;;;;;;;;;4142281;28;20093;-67
2023/10/10 11:40:38;;;;;;;3.00;1.13;;;;;;;;;;4134869;28;20046;-66
2023/10/10 11:42:47;;;;;;;1.55;1.45;;;;;;;;;;4142243;28;20037;-62
2023/10/10 11:44:53;;;;;;;1.25;1.15;;;;;;;;;;4147946;28;20117;-63
2023/10/10 11:47:02;;;;;;;1.30;1.20;;;;;;;;;;4143458;28;20058;-62
2023/10/10 11:49:04;;;;;;;3.38;1.23;;;;;;;;;;4143323;28;20085;-63
2023/10/10 11:51:06;;;;;;;2.55;1.10;;;;;;;;;;4141033;28;20438;-63
2023/10/10 11:53:07;;;;;;;1.25;1.00;;;;;;;;;;4146406;28;20073;-62
2023/10/10 11:55:09;;;;;;;3.05;1.17;;;;;;;;;;4162634;28;20498;-62
2023/10/10 11:57:15;;;;;;;4.15;1.17;;;;;;;;;;4131442;28;20812;-62
2023/10/10 11:59:17;;;;;;;4.25;1.52;;;;;;;;;;4140549;28;20046;-62
2023/10/10 12:01:47;;;;;;;2.78;1.30;;;;;;;;;;4147708;28;20034;-63
2023/10/10 12:05:50;;;;;;;2.58;1.30;;;;;;;;;;4136818;28;20039;-63
2023/10/10 12:07:53;;;;;;;1.10;1.00;;;;;;;;;;4147458;28;20041;-63
2023/10/10 12:10:07;;;;;;;3.53;1.05;;;;;;;;;;4147689;28;20054;-62
2023/10/10 12:12:09;;;;;;;2.15;1.42;;;;;;;;;;4147493;28;20124;-62
2023/10/10 12:14:18;;;;;;;1.33;1.17;;;;;;;;;;4147616;28;20041;-62
2023/10/10 12:16:23;;;;;;;1.58;1.20;;;;;;;;;;4147603;28;20062;-63
2023/10/10 12:18:30;;;;;;;1.42;1.10;;;;;;;;;;4147908;28;20045;-63
2023/10/10 12:20:32;;;;;;;1.08;1.08;;;;;;;;;;4147800;28;20544;-62
2023/10/10 12:22:33;;;;;;;1.13;1.00;;;;;;;;;;4145294;28;20487;-63
2023/10/10 12:24:35;;;;;;;3.05;1.13;;;;;;;;;;4146407;28;20469;-63
2023/10/10 12:26:41;;;;;;;;;;;;;;;;;;4150489;28;20056;-62
2023/10/10 12:28:44;;;;;;;2.78;1.08;;;;;;;;;;4150880;28;19922;-63
2023/10/10 12:30:45;;;;;;;2.33;1.00;;;;;;;;;;4150710;28;20042;-64
2023/10/10 12:32:49;;;;;;;2.47;1.20;;;;;;;;;;4144375;28;20517;-63
2023/10/10 12:34:51;;;;;;;6.60;1.48;;;;;;;;;;4143844;28;20053;-60
2023/10/10 12:36:59;;;;;;;2.55;1.25;;;;;;;;;;4149931;28;20644;-61
2023/10/10 12:39:04;;;;;;;1.05;0.95;;;;;;;;;;4144607;28;20042;-60
2023/10/10 12:41:11;;;;;;;2.92;1.05;;;;;;;;;;4143097;28;20562;-61
2023/10/10 12:43:13;;;;;;;1.20;1.10;;;;;;;;;;4147397;28;20041;-61
2023/10/10 12:45:14;;;;;;;1.98;1.00;;;;;;;;;;4147702;28;20038;-62
2023/10/10 12:47:17;;;;;;;2.33;0.90;;;;;;;;;;4161076;28;20057;-60
2023/10/10 12:49:28;;;;;;;1.30;1.20;;;;;;;;;;4150203;28;20403;-61
2023/10/10 12:51:30;;;;;;;1.35;1.23;;;;;;;;;;4149625;28;20042;-60
2023/10/10 12:53:39;;;;;;;3.28;1.10;;;;;;;;;;4147698;28;20473;-61
2023/10/10 12:55:51;;;;;;;1.20;1.10;;;;;;;;;;4162617;28;20050;-60
2023/10/10 12:57:54;;;;;;;;;;;;;;;;;;4150915;28;20042;-60
2023/10/10 13:00:23;;;;;;;2.50;1.08;;;;;;;;;;4150582;28;19925;-61
2023/10/10 13:02:25;;;;;;;1.35;1.25;;;;;;;;;;4150074;28;20125;-61
2023/10/10 13:04:36;;;;;;;2.83;1.30;;;;;;;;;;4150344;28;20041;-60
2023/10/10 13:06:39;;;;;;;1.95;1.00;;;;;;;;;;4150637;28;20053;-60
2023/10/10 13:08:49;;;;;;;1.10;1.05;;;;;;;;;;4150240;28;20462;-60
2023/10/10 13:11:01;;;;;;;2.88;1.00;;;;;;;;;;4149169;28;20044;-60
2023/10/10 13:13:03;;;;;;;1.13;1.00;;;;;;;;;;4149910;28;20046;-60
2023/10/10 13:15:17;;;;;;;2.30;1.55;;;;;;;;;;4148154;28;20631;-61
2023/10/10 13:17:28;;;;;;;1.67;0.90;;;;;;;;;;4150154;28;20120;-60
2023/10/10 13:19:32;;;;;;;2.80;1.55;;;;;;;;;;4150133;28;20052;-61
2023/10/10 13:21:37;;;;;;;1.35;1.10;;;;;;;;;;4150209;28;20512;-61
2023/10/10 13:23:43;;;;;;;2.05;1.10;;;;;;;;;;4150196;28;20038;-60
2023/10/10 13:25:48;;;;;;;1.35;1.25;;;;;;;;;;4150350;28;20121;-60
2023/10/10 13:27:52;;;;;;;1.40;1.00;;;;;;;;;;4150065;28;20128;-60
2023/10/10 13:29:54;;;;;;;1.55;1.05;;;;;;;;;;4149922;28;20065;-60
2023/10/10 13:31:57;;;;;;;1.77;1.20;;;;;;;;;;4149829;28;20429;-60
2023/10/10 13:33:59;;;;;;;0.95;0.93;;;;;;;;;;4149903;28;20037;-61
2023/10/10 13:36:01;;;;;;;;;;;;;;;;;;4150009;28;20041;-61
2023/10/10 13:38:06;;;;;;;1.13;1.02;;;;;;;;;;4148999;28;19929;-61
2023/10/10 13:40:09;;;;;;;1.30;1.10;;;;;;;;;;4149309;28;20052;-61
2023/10/10 13:42:14;;;;;;;2.90;1.25;;;;;;;;;;4149660;28;20112;-60
2023/10/10 13:44:18;;;;;;;1.67;1.10;;;;;;;;;;4148785;28;20049;-61
2023/10/10 13:46:22;;;;;;;1.20;1.10;;;;;;;;;;4149003;28;20041;-60
2023/10/10 13:48:24;;;;;;;2.83;1.05;;;;;;;;;;4149280;28;20034;-60
2023/10/10 13:50:31;;;;;;;4.25;1.08;;;;;;;;;;4149822;28;20073;-61
2023/10/10 13:52:33;;;;;;;2.25;1.30;;;;;;;;;;4148961;28;20040;-60
2023/10/10 13:54:34;;;;;;;3.13;1.05;;;;;;;;;;4162349;28;20045;-60
2023/10/10 13:56:36;;;;;;;2.70;1.38;;;;;;;;;;4161049;28;20073;-61
2023/10/10 13:58:40;;;;;;;;;;;;;;;;;;4149914;28;20435;-61
2023/10/10 14:00:55;;;;;;;2.30;1.10;;;;;;;;;;4149373;28;20401;-61
2023/10/10 14:03:03;;;;;;;1.17;1.00;;;;;;;;;;4149193;28;20045;-60
2023/10/10 14:05:07;;;;;;;1.38;1.00;;;;;;;;;;4148937;28;20103;-61
2023/10/10 14:07:11;;;;;;;2.88;1.40;;;;;;;;;;4148490;28;20096;-61
2023/10/10 14:09:22;;;;;;;1.17;1.10;;;;;;;;;;4148570;28;20042;-61
2023/10/10 14:11:23;;;;;;;1.73;1.50;;;;;;;;;;4147726;28;20137;-61
2023/10/10 14:13:26;;;;;;;2.35;1.70;;;;;;;;;;4148364;28;20476;-61
2023/10/10 14:15:28;;;;;;;2.85;1.30;;;;;;;;;;4148019;28;20056;-61
2023/10/10 14:17:30;;;;;;;2.75;1.30;;;;;;;;;;4146942;28;20042;-61
2023/10/10 14:19:32;;;;;;;1.63;1.52;;;;;;;;;;4148517;28;20069;-61
2023/10/10 14:21:38;;;;;;;;;;;;;;;;;;4149496;28;20042;-61
2023/10/10 14:23:40;;;;;;;3.65;1.17;;;;;;;;;;4148503;28;19960;-62
2023/10/10 14:25:47;;;;;;;1.52;1.42;;;;;;;;;;4148295;28;20049;-61
2023/10/10 14:27:49;;;;;;;3.55;1.50;;;;;;;;;;4149363;28;20042;-61
2023/10/10 14:29:51;;;;;;;1.95;1.20;;;;;;;;;;4145310;28;20107;-60
2023/10/10 14:31:58;;;;;;;;;;;;;;;;;;4149106;28;20049;-61
2023/10/10 14:34:01;;;;;;;1.02;1.00;;;;;;;;;;4148433;28;19921;-61
2023/10/10 14:36:03;;;;;;;1.77;1.13;;;;;;;;;;4148021;28;20088;-60
2023/10/10 14:38:04;;;;;;;3.60;1.35;;;;;;;;;;4145507;28;20057;-60
2023/10/10 14:40:09;;;;;;;1.40;1.30;;;;;;;;;;4156029;28;20107;-61
2023/10/10 14:42:13;;;;;;;4.80;1.10;;;;;;;;;;4162418;28;20041;-61
2023/10/10 14:44:15;;;;;;;1.20;1.10;;;;;;;;;;4164552;28;20040;-60
2023/10/10 14:46:21;;;;;;;1.80;1.33;;;;;;;;;;4162298;28;20115;-61
2023/10/10 14:48:23;;;;;;;4.10;1.20;;;;;;;;;;4146581;28;20042;-60
2023/10/10 14:50:25;;;;;;;2.47;1.13;;;;;;;;;;4148352;28;20124;-61
2023/10/10 14:52:35;;;;;;;2.25;1.60;;;;;;;;;;4148607;28;20050;-61
2023/10/10 14:54:42;;;;;;;1.15;1.05;;;;;;;;;;4161834;28;20512;-60
2023/10/10 14:56:46;;;;;;;1.02;1.02;;;;;;;;;;4165137;28;20049;-61
2023/10/10 14:58:49;;;;;;;4.00;1.10;;;;;;;;;;4164932;28;20042;-61